createdAt,value
2022-08-12T00:00:10.328Z,54.60
2022-08-12T00:02:56.425Z,54.60
2022-08-12T00:06:00.468Z,55.00
2022-08-12T00:08:48.736Z,55.00
2022-08-12T00:11:34.642Z,55.30
2022-08-12T00:14:22.031Z,55.20
2022-08-12T00:17:08.104Z,55.50
2022-08-12T00:19:54.282Z,55.50
2022-08-12T00:22:40.158Z,55.60
2022-08-12T00:26:05.661Z,55.70
2022-08-12T00:28:32.041Z,55.90
2022-08-12T00:31:19.810Z,56.40
2022-08-12T00:34:05.565Z,56.60
2022-08-12T00:36:51.672Z,56.70
2022-08-12T00:39:37.658Z,56.80
2022-08-12T00:42:11.556Z,56.80
2022-08-12T00:44:42.426Z,56.90
2022-08-12T00:47:24.480Z,57.10
2022-08-12T00:49:54.588Z,57.20
2022-08-12T00:52:23.794Z,57.20
2022-08-12T00:54:54.340Z,57.50
2022-08-12T00:57:24.454Z,57.50
2022-08-12T00:59:54.527Z,57.60
2022-08-12T01:02:26.542Z,57.60
2022-08-12T01:05:13.911Z,57.80
2022-08-12T01:08:00.645Z,58.00
2022-08-12T01:10:51.306Z,58.20
2022-08-12T01:13:20.631Z,58.40
2022-08-12T01:15:51.391Z,58.30
2022-08-12T01:18:21.432Z,58.40
2022-08-12T01:20:57.408Z,58.60
2022-08-12T01:23:58.010Z,58.80
2022-08-12T01:26:27.793Z,59.50
2022-08-12T01:28:58.994Z,59.30
2022-08-12T01:31:29.351Z,59.40
2022-08-12T01:34:35.735Z,59.60
2022-08-12T01:36:58.652Z,59.80
2022-08-12T01:39:32.166Z,60.00
2022-08-12T01:42:07.028Z,60.40
2022-08-12T01:44:37.165Z,60.50
2022-08-12T01:47:19.185Z,60.60
2022-08-12T01:50:08.847Z,60.80
2022-08-12T01:52:49.506Z,60.90
2022-08-12T01:55:21.348Z,61.30
2022-08-12T01:58:01.382Z,61.50
2022-08-12T02:00:55.174Z,61.60
2022-08-12T02:03:54.492Z,61.80
2022-08-12T02:06:48.113Z,62.10
2022-08-12T02:09:39.664Z,62.50
2022-08-12T02:12:27.684Z,62.60
2022-08-12T02:15:13.188Z,62.90
2022-08-12T02:17:55.652Z,63.00
2022-08-12T02:20:51.175Z,63.10
2022-08-12T02:23:25.576Z,63.60
2022-08-12T02:25:57.306Z,63.80
2022-08-12T02:28:26.090Z,64.10
2022-08-12T02:30:56.240Z,64.30
2022-08-12T02:33:25.514Z,64.50
2022-08-12T02:35:55.490Z,64.60
2022-08-12T02:38:27.335Z,64.80
2022-08-12T02:40:56.985Z,65.10
2022-08-12T02:43:30.445Z,65.40
2022-08-12T02:46:04.613Z,65.50
2022-08-12T02:48:36.564Z,65.70
2022-08-12T02:51:07.067Z,65.70
2022-08-12T02:53:37.233Z,66.20
2022-08-12T02:56:06.972Z,66.20
2022-08-12T02:58:36.487Z,66.60
2022-08-12T03:01:11.258Z,66.70
2022-08-12T03:03:41.463Z,66.70
2022-08-12T03:06:15.872Z,66.80
2022-08-12T03:08:53.599Z,67.00
2022-08-12T03:11:26.641Z,67.20
2022-08-12T03:14:01.231Z,67.40
2022-08-12T03:16:33.738Z,67.70
2022-08-12T03:19:05.136Z,67.80
2022-08-12T03:21:55.462Z,68.00
2022-08-12T03:24:27.304Z,68.10
2022-08-12T03:27:00.335Z,68.00
2022-08-12T03:29:43.285Z,68.20
2022-08-12T03:32:35.207Z,67.90
2022-08-12T03:35:07.343Z,68.60
2022-08-12T03:37:36.613Z,68.80
2022-08-12T03:40:05.464Z,69.00
2022-08-12T03:42:38.827Z,69.00
2022-08-12T03:45:35.134Z,69.10
2022-08-12T03:48:37.482Z,69.30
2022-08-12T03:51:23.814Z,69.40
2022-08-12T03:54:11.912Z,69.60
2022-08-12T03:56:58.067Z,69.70
2022-08-12T03:59:43.890Z,69.90
2022-08-12T04:02:15.543Z,70.10
2022-08-12T04:04:46.761Z,70.30
2022-08-12T04:07:16.393Z,70.70
2022-08-12T04:09:46.157Z,70.70
2022-08-12T04:12:33.001Z,70.70
2022-08-12T04:15:03.095Z,70.60
2022-08-12T04:17:32.305Z,70.70
2022-08-12T04:20:02.190Z,70.70
2022-08-12T04:22:31.125Z,70.90
2022-08-12T04:25:01.963Z,71.00
2022-08-12T04:27:32.124Z,71.00
2022-08-12T04:30:29.581Z,70.90
2022-08-12T04:32:52.351Z,70.90
2022-08-12T04:35:23.410Z,71.00
2022-08-12T04:37:58.184Z,71.10
2022-08-12T04:40:30.988Z,71.20
2022-08-12T04:43:01.224Z,71.40
2022-08-12T04:45:30.170Z,71.40
2022-08-12T04:47:58.540Z,71.30
2022-08-12T04:50:35.664Z,71.20
2022-08-12T04:53:05.863Z,71.30
2022-08-12T04:55:35.658Z,71.20
2022-08-12T04:58:03.821Z,71.30
2022-08-12T05:00:31.956Z,71.30
2022-08-12T05:03:00.303Z,71.10
2022-08-12T05:05:35.692Z,71.00
2022-08-12T05:08:07.685Z,70.90
2022-08-12T05:10:36.152Z,72.00
2022-08-12T05:13:08.496Z,71.30
2022-08-12T05:16:02.489Z,71.40
2022-08-12T05:18:29.033Z,71.40
2022-08-12T05:20:59.825Z,71.40
2022-08-12T05:23:29.518Z,71.20
2022-08-12T05:25:57.723Z,71.50
2022-08-12T05:28:27.737Z,71.70
2022-08-12T05:30:57.166Z,72.30
2022-08-12T05:33:26.549Z,71.30
2022-08-12T05:35:54.671Z,71.30
2022-08-12T05:38:41.704Z,71.40
2022-08-12T05:41:19.137Z,71.50
2022-08-12T05:43:48.797Z,71.70
2022-08-12T05:46:19.923Z,71.80
2022-08-12T05:48:51.882Z,71.90
2022-08-12T05:51:19.834Z,71.70
2022-08-12T05:53:49.342Z,71.30
2022-08-12T05:56:22.372Z,71.00
2022-08-12T05:58:52.595Z,71.00
2022-08-12T06:02:10.083Z,71.10
2022-08-12T06:04:09.869Z,71.10
2022-08-12T06:06:41.865Z,70.80
2022-08-12T06:09:12.603Z,70.60
2022-08-12T06:11:59.897Z,70.30
2022-08-12T06:14:31.728Z,69.90
2022-08-12T06:16:59.918Z,69.70
2022-08-12T06:20:27.330Z,69.60
2022-08-12T06:22:18.032Z,69.50
2022-08-12T06:24:48.505Z,69.20
2022-08-12T06:27:17.666Z,68.90
2022-08-12T06:30:09.343Z,68.60
2022-08-12T06:32:34.612Z,68.60
2022-08-12T06:35:26.844Z,68.60
2022-08-12T06:37:57.349Z,68.50
2022-08-12T06:40:45.144Z,68.20
2022-08-12T06:43:14.199Z,67.70
2022-08-12T06:45:49.615Z,67.30
2022-08-12T06:48:17.685Z,67.20
2022-08-12T06:50:46.069Z,67.00
2022-08-12T06:53:14.103Z,66.90
2022-08-12T06:55:57.959Z,66.90
2022-08-12T06:58:27.238Z,67.00
2022-08-12T07:00:58.143Z,66.90
2022-08-12T07:03:29.259Z,66.90
2022-08-12T07:05:59.804Z,66.40
2022-08-12T07:08:29.535Z,66.40
2022-08-12T07:11:01.855Z,65.70
2022-08-12T07:14:02.374Z,65.70
2022-08-12T07:16:47.296Z,65.60
2022-08-12T07:19:15.453Z,65.40
2022-08-12T07:22:02.374Z,65.40
2022-08-12T07:24:31.055Z,64.70
2022-08-12T07:27:02.955Z,63.50
2022-08-12T07:30:03.846Z,63.90
2022-08-12T07:32:20.271Z,62.60
2022-08-12T07:34:49.765Z,62.20
2022-08-12T07:37:17.789Z,61.70
2022-08-12T07:39:50.818Z,61.50
2022-08-12T07:42:31.176Z,61.10
2022-08-12T07:44:59.559Z,60.60
2022-08-12T07:47:27.950Z,60.20
2022-08-12T07:50:05.721Z,60.70
2022-08-12T07:52:35.431Z,60.90
2022-08-12T07:55:04.741Z,60.70
2022-08-12T07:57:48.869Z,60.20
2022-08-12T08:00:18.375Z,59.10
2022-08-12T08:02:46.759Z,58.40
2022-08-12T08:05:15.555Z,58.20
2022-08-12T08:07:43.570Z,58.30
2022-08-12T08:10:12.509Z,57.20
2022-08-12T08:12:58.837Z,56.60
2022-08-12T08:16:00.693Z,56.20
2022-08-12T08:18:26.049Z,56.20
2022-08-12T08:20:56.741Z,55.60
2022-08-12T08:23:46.948Z,55.20
2022-08-12T08:26:26.994Z,54.90
2022-08-12T08:28:56.957Z,54.50
2022-08-12T08:31:25.112Z,53.80
2022-08-12T08:34:09.022Z,53.50
2022-08-12T08:36:39.449Z,53.30
2022-08-12T08:39:08.368Z,52.40
2022-08-12T08:42:15.601Z,51.60
2022-08-12T08:44:45.021Z,51.20
2022-08-12T08:47:14.126Z,50.70
2022-08-12T08:49:42.470Z,50.80
2022-08-12T08:52:12.379Z,50.80
2022-08-12T08:54:40.686Z,50.20
2022-08-12T08:57:09.355Z,49.70
2022-08-12T08:59:37.742Z,49.50
2022-08-12T09:02:08.609Z,49.00
2022-08-12T09:05:11.779Z,48.70
2022-08-12T09:07:43.988Z,48.30
2022-08-12T09:10:30.753Z,47.80
2022-08-12T09:13:23.161Z,47.60
2022-08-12T09:18:42.464Z,46.20
2022-08-12T09:21:12.671Z,46.10
2022-08-12T09:23:59.127Z,45.60
2022-08-12T09:26:32.025Z,45.50
2022-08-12T09:29:12.295Z,44.40
2022-08-12T09:32:06.138Z,43.90
2022-08-12T09:34:36.309Z,43.40
2022-08-12T09:37:19.920Z,42.90
2022-08-12T09:40:05.067Z,43.90
2022-08-12T09:43:15.326Z,42.80
2022-08-12T09:46:06.799Z,43.70
2022-08-12T09:48:39.998Z,42.30
2022-08-12T09:51:21.566Z,42.50
2022-08-12T09:54:08.612Z,42.40
2022-08-12T09:57:02.905Z,41.80
2022-08-12T10:00:15.482Z,42.10
2022-08-12T10:02:45.788Z,41.70
2022-08-12T10:05:05.249Z,41.50
2022-08-12T10:07:39.689Z,41.20
2022-08-12T10:10:25.220Z,40.60
2022-08-12T10:13:34.832Z,40.00
2022-08-12T10:16:08.309Z,39.20
2022-08-12T10:18:53.864Z,38.40
2022-08-12T10:21:36.071Z,38.60
2022-08-12T10:24:09.144Z,39.00
2022-08-12T10:26:59.037Z,38.60
2022-08-12T10:30:03.670Z,38.70
2022-08-12T10:32:43.673Z,38.20
2022-08-12T10:35:16.039Z,37.80
2022-08-12T10:38:35.752Z,38.00
2022-08-12T10:40:56.588Z,38.40
2022-08-12T10:43:54.848Z,37.40
2022-08-12T10:46:30.922Z,37.20
2022-08-12T10:49:05.718Z,36.60
2022-08-12T10:52:32.507Z,36.90
2022-08-12T10:54:40.758Z,37.10
2022-08-12T10:57:18.287Z,37.30
2022-08-12T11:00:34.470Z,36.70
2022-08-12T11:04:22.960Z,36.70
2022-08-12T11:07:08.851Z,36.90
2022-08-12T11:08:42.027Z,36.40
2022-08-12T11:11:17.785Z,35.50
2022-08-12T11:14:13.139Z,35.40
2022-08-12T11:17:42.983Z,35.50
2022-08-12T11:19:46.595Z,35.50
2022-08-12T11:22:15.913Z,35.10
2022-08-12T11:24:51.761Z,34.50
2022-08-12T11:27:19.933Z,34.40
2022-08-12T11:30:02.101Z,34.40
2022-08-12T11:32:38.622Z,34.20
2022-08-12T11:35:08.555Z,34.30
2022-08-12T11:37:58.108Z,34.20
2022-08-12T11:40:28.663Z,34.80
2022-08-12T11:43:00.763Z,34.30
2022-08-12T11:45:47.507Z,34.00
2022-08-12T11:48:16.708Z,34.40
2022-08-12T11:50:47.032Z,34.80
2022-08-12T11:53:58.626Z,34.60
2022-08-12T11:56:06.525Z,34.40
2022-08-12T12:00:29.613Z,33.60
2022-08-12T12:02:00.957Z,34.00
2022-08-12T12:04:12.501Z,33.60
2022-08-12T12:07:07.368Z,33.20
2022-08-12T12:09:52.535Z,33.30
2022-08-12T12:12:22.960Z,33.20
2022-08-12T12:14:54.915Z,33.40
2022-08-12T12:17:25.342Z,33.40
2022-08-12T12:19:53.904Z,32.20
2022-08-12T12:22:27.242Z,32.50
2022-08-12T12:24:59.181Z,32.40
2022-08-12T12:28:03.969Z,33.10
2022-08-12T12:30:34.375Z,32.70
2022-08-12T12:33:04.210Z,32.80
2022-08-12T12:36:06.348Z,32.90
2022-08-12T12:38:25.210Z,32.30
2022-08-12T12:40:53.707Z,32.60
2022-08-12T12:43:29.019Z,33.30
2022-08-12T12:46:11.581Z,33.50
2022-08-12T12:48:44.482Z,33.50
2022-08-12T12:51:48.428Z,34.00
2022-08-12T12:54:09.937Z,33.90
2022-08-12T12:56:42.257Z,33.60
2022-08-12T12:59:54.971Z,33.40
2022-08-12T13:02:08.085Z,33.70
2022-08-12T13:04:38.423Z,32.80
2022-08-12T13:07:07.890Z,32.40
2022-08-12T13:09:36.851Z,32.30
2022-08-12T13:12:08.901Z,31.80
2022-08-12T13:14:39.913Z,31.90
2022-08-12T13:17:09.677Z,32.10
2022-08-12T13:19:44.501Z,32.50
2022-08-12T13:22:20.471Z,32.40
2022-08-12T13:24:52.157Z,32.70
2022-08-12T13:27:23.073Z,32.60
2022-08-12T13:30:01.995Z,32.40
2022-08-12T13:32:31.935Z,32.30
2022-08-12T13:35:04.542Z,33.60
2022-08-12T13:37:54.707Z,33.10
2022-08-12T13:40:24.983Z,32.30
2022-08-12T13:42:57.378Z,32.60
2022-08-12T13:45:25.691Z,32.40
2022-08-12T13:47:58.196Z,32.00
2022-08-12T13:50:33.910Z,31.80
2022-08-12T13:53:06.435Z,31.60
2022-08-12T13:55:59.823Z,31.90
2022-08-12T13:58:30.519Z,31.90
2022-08-12T14:01:00.925Z,31.70
2022-08-12T14:03:50.668Z,31.80
2022-08-12T14:06:21.031Z,31.80
2022-08-12T14:08:50.524Z,32.30
2022-08-12T14:11:25.390Z,32.10
2022-08-12T14:14:03.254Z,31.80
2022-08-12T14:16:52.204Z,31.70
2022-08-12T14:19:22.367Z,31.10
2022-08-12T14:22:00.670Z,30.80
2022-08-12T14:24:40.820Z,30.50
2022-08-12T14:27:11.016Z,30.50
2022-08-12T14:30:04.658Z,30.60
2022-08-12T14:32:34.924Z,31.10
2022-08-12T14:35:05.194Z,29.80
2022-08-12T14:37:55.974Z,30.10
2022-08-12T14:40:27.586Z,29.90
2022-08-12T14:42:56.994Z,29.80
2022-08-12T14:45:44.253Z,30.10
2022-08-12T14:48:15.120Z,30.30
2022-08-12T14:51:02.736Z,29.50
2022-08-12T14:59:56.381Z,29.40
2022-08-12T15:02:21.234Z,29.00
2022-08-12T15:04:59.205Z,28.90
2022-08-12T15:07:33.626Z,28.90
2022-08-12T15:10:31.778Z,28.70
2022-08-12T15:13:05.678Z,28.50
2022-08-12T15:15:43.476Z,28.30
2022-08-12T15:18:13.739Z,28.10
2022-08-12T15:20:42.310Z,28.00
2022-08-12T15:23:18.008Z,28.10
2022-08-12T15:25:59.689Z,27.90
2022-08-12T15:28:33.228Z,27.70
2022-08-12T15:31:02.435Z,27.60
2022-08-12T15:33:45.198Z,27.50
2022-08-12T15:36:19.375Z,27.50
2022-08-12T15:38:53.205Z,27.20
2022-08-12T15:41:27.673Z,27.10
2022-08-12T15:44:36.831Z,27.30
2022-08-12T15:47:03.671Z,27.70
2022-08-12T15:49:43.207Z,27.40
2022-08-12T15:52:27.420Z,27.20
2022-08-12T15:54:58.861Z,27.20
2022-08-12T15:57:28.630Z,27.30
2022-08-12T16:00:07.133Z,27.20
2022-08-12T16:02:49.470Z,27.20
2022-08-12T16:06:12.302Z,27.30
2022-08-12T16:08:17.223Z,27.60
2022-08-12T16:10:46.771Z,27.30
2022-08-12T16:13:25.177Z,27.10
2022-08-12T16:16:03.946Z,27.00
2022-08-12T16:18:40.489Z,27.20
2022-08-12T16:21:50.292Z,27.90
2022-08-12T16:24:01.936Z,27.50
2022-08-12T16:26:35.867Z,27.60
2022-08-12T16:29:15.087Z,27.80
2022-08-12T16:31:45.063Z,27.60
2022-08-12T16:34:25.737Z,27.70
2022-08-12T16:37:07.137Z,27.70
2022-08-12T16:40:00.958Z,28.00
2022-08-12T16:42:28.089Z,28.00
2022-08-12T16:44:59.517Z,28.30
2022-08-12T16:47:27.879Z,28.50
2022-08-12T16:49:57.789Z,28.70
2022-08-12T16:52:25.974Z,28.60
2022-08-12T16:54:56.546Z,28.70
2022-08-12T16:57:34.925Z,28.80
2022-08-12T17:00:07.323Z,28.50
2022-08-12T17:02:36.861Z,28.80
2022-08-12T17:05:07.055Z,28.40
2022-08-12T17:07:43.790Z,28.50
2022-08-12T17:10:35.464Z,28.40
2022-08-12T17:13:10.142Z,28.30
2022-08-12T17:15:56.711Z,28.50
2022-08-12T17:18:42.280Z,28.70
2022-08-12T17:21:19.971Z,28.80
2022-08-12T17:23:53.827Z,28.70
2022-08-12T17:26:28.142Z,28.90
2022-08-12T17:28:57.719Z,29.20
2022-08-12T17:31:59.693Z,29.10
2022-08-12T17:34:33.572Z,29.10
2022-08-12T17:37:05.543Z,28.80
2022-08-12T17:40:12.799Z,28.80
2022-08-12T17:42:32.840Z,28.80
2022-08-12T17:45:17.539Z,28.90
2022-08-12T17:48:01.092Z,28.70
2022-08-12T17:50:32.326Z,28.70
2022-08-12T17:53:03.079Z,28.80
2022-08-12T17:55:44.032Z,29.10
2022-08-12T17:58:16.585Z,29.20
2022-08-12T18:00:45.903Z,29.40
2022-08-12T18:03:58.085Z,29.30
2022-08-12T18:06:14.089Z,29.40
2022-08-12T18:08:54.591Z,29.50
2022-08-12T18:12:06.088Z,29.50
2022-08-12T18:14:30.313Z,29.60
2022-08-12T18:17:02.483Z,29.90
2022-08-12T18:19:48.550Z,29.80
2022-08-12T18:22:21.965Z,29.60
2022-08-12T18:25:02.389Z,29.60
2022-08-12T18:27:43.567Z,29.80
2022-08-12T18:30:20.625Z,29.90
2022-08-12T18:33:04.544Z,29.90
2022-08-12T18:35:47.503Z,30.00
2022-08-12T18:38:22.075Z,30.20
2022-08-12T18:41:09.811Z,30.20
2022-08-12T18:43:58.826Z,30.40
2022-08-12T18:46:46.913Z,30.80
2022-08-12T18:49:20.023Z,31.30
2022-08-12T18:51:55.189Z,31.50
2022-08-12T18:54:32.284Z,31.70
2022-08-12T18:57:03.808Z,32.00
2022-08-12T19:00:01.925Z,32.20
2022-08-12T19:02:23.218Z,32.30
2022-08-12T19:04:53.342Z,32.50
2022-08-12T19:07:25.526Z,32.60
2022-08-12T19:10:00.122Z,32.80
2022-08-12T19:12:56.948Z,33.10
2022-08-12T19:15:26.621Z,33.30
2022-08-12T19:18:00.952Z,33.60
2022-08-12T19:20:32.890Z,33.80
2022-08-12T19:23:07.943Z,34.00
2022-08-12T19:25:59.304Z,34.10
2022-08-12T19:28:34.723Z,34.30
2022-08-12T19:31:55.733Z,34.70
2022-08-12T19:37:17.283Z,35.90
2022-08-12T19:40:09.317Z,35.50
2022-08-12T19:42:44.405Z,35.60
2022-08-12T19:45:15.665Z,35.90
2022-08-12T19:47:46.447Z,36.60
2022-08-12T19:50:20.299Z,36.20
2022-08-12T19:52:53.465Z,36.60
2022-08-12T19:55:27.289Z,36.80
2022-08-12T19:58:01.745Z,37.30
2022-08-12T20:00:35.052Z,37.50
2022-08-12T20:03:05.282Z,37.70
2022-08-12T20:06:05.076Z,37.90
2022-08-12T20:08:31.422Z,38.10
2022-08-12T20:12:12.969Z,38.30
2022-08-12T20:14:01.734Z,38.40
2022-08-12T20:19:52.187Z,38.90
2022-08-12T20:22:24.160Z,39.40
2022-08-12T20:25:12.406Z,39.70
2022-08-12T20:28:04.525Z,39.80
2022-08-12T20:30:37.260Z,39.90
2022-08-12T20:33:32.409Z,40.30
2022-08-12T20:36:40.013Z,39.70
2022-08-12T20:38:55.977Z,39.60
2022-08-12T20:41:25.264Z,39.60
2022-08-12T20:43:57.237Z,39.70
2022-08-12T20:46:31.594Z,39.60
2022-08-12T20:49:00.594Z,39.70
2022-08-12T20:51:55.155Z,39.70
2022-08-12T20:54:32.860Z,39.70
2022-08-12T20:57:09.687Z,39.80
2022-08-12T20:59:47.779Z,39.80
2022-08-12T21:02:16.300Z,39.80
2022-08-12T21:05:16.220Z,39.70
2022-08-12T21:07:52.050Z,39.70
2022-08-12T21:10:21.383Z,39.70
2022-08-12T21:12:54.489Z,39.70
2022-08-12T21:15:53.448Z,39.90
2022-08-12T21:18:28.831Z,40.20
2022-08-12T21:20:59.112Z,40.20
2022-08-12T21:23:30.882Z,40.20
2022-08-12T21:26:06.094Z,40.30
2022-08-12T21:28:39.535Z,40.60
2022-08-12T21:32:35.440Z,40.60
2022-08-12T21:34:08.936Z,40.50
2022-08-12T21:36:39.533Z,40.80
2022-08-12T21:39:18.987Z,41.40
2022-08-12T21:41:50.986Z,40.70
2022-08-12T21:44:24.442Z,40.80
2022-08-12T21:47:12.068Z,41.00
2022-08-12T21:50:02.300Z,41.60
2022-08-12T21:52:34.223Z,40.90
2022-08-12T21:55:02.413Z,40.90
2022-08-12T21:57:36.206Z,40.80
2022-08-12T22:00:19.023Z,40.80
2022-08-12T22:03:05.942Z,40.90
2022-08-12T22:05:53.409Z,41.00
2022-08-12T22:08:22.407Z,41.20
2022-08-12T22:10:56.480Z,41.20
2022-08-12T22:14:07.061Z,41.20
2022-08-12T22:16:14.377Z,41.30
2022-08-12T22:18:50.410Z,41.40
2022-08-12T22:21:22.187Z,41.40
2022-08-12T22:24:05.157Z,41.40
2022-08-12T22:26:37.476Z,41.40
2022-08-12T22:29:24.052Z,41.40
2022-08-12T22:31:55.679Z,41.30
2022-08-12T22:34:33.154Z,41.50
2022-08-12T22:37:02.654Z,41.50
2022-08-12T22:39:31.562Z,41.50
2022-08-12T22:42:20.051Z,41.50
2022-08-12T22:45:05.857Z,41.60
2022-08-12T22:47:55.441Z,41.60
2022-08-12T22:50:28.700Z,41.60
2022-08-12T22:53:15.571Z,41.60
2022-08-12T22:56:00.913Z,41.60
2022-08-12T22:58:35.296Z,41.70
2022-08-12T23:01:04.020Z,41.70
2022-08-12T23:03:49.086Z,41.70
2022-08-12T23:06:21.402Z,41.60
2022-08-12T23:08:49.857Z,41.60
2022-08-12T23:11:23.702Z,41.70
2022-08-12T23:13:56.870Z,41.80
2022-08-12T23:16:30.971Z,41.80
2022-08-12T23:19:09.533Z,41.90
2022-08-12T23:22:05.037Z,42.50
2022-08-12T23:24:32.605Z,41.90
2022-08-12T23:27:21.416Z,42.00
2022-08-12T23:30:17.402Z,42.10
2022-08-12T23:32:38.272Z,42.10
2022-08-12T23:35:08.074Z,42.30
2022-08-12T23:37:46.655Z,42.30
2022-08-12T23:40:21.992Z,42.20
2022-08-12T23:42:50.673Z,42.30
2022-08-12T23:45:30.723Z,42.30
2022-08-12T23:48:00.475Z,42.20
2022-08-12T23:50:33.896Z,42.30
2022-08-12T23:53:16.916Z,42.50
2022-08-12T23:55:54.772Z,42.50
2022-08-12T23:58:26.479Z,42.60
